createdAt,value
2023-03-05T00:02:16.639Z,23.63
2023-03-05T00:05:01.490Z,23.55
2023-03-05T00:07:46.404Z,23.75
2023-03-05T00:10:31.370Z,23.57
2023-03-05T00:13:16.337Z,23.65
2023-03-05T00:16:01.262Z,23.48
2023-03-05T00:18:46.155Z,23.57
2023-03-05T00:21:30.977Z,23.03
2023-03-05T00:24:15.958Z,22.74
2023-03-05T00:27:00.760Z,22.71
2023-03-05T00:29:45.690Z,23.23
2023-03-05T00:32:30.635Z,23.89
2023-03-05T00:35:15.953Z,23.54
2023-03-05T00:38:00.942Z,24.41
2023-03-05T00:40:45.786Z,23.58
2023-03-05T00:43:30.701Z,23.77
2023-03-05T00:46:15.577Z,23.07
2023-03-05T00:49:00.433Z,23.65
2023-03-05T00:51:45.370Z,23.85
2023-03-05T00:54:30.290Z,23.62
2023-03-05T00:57:15.135Z,23.36
2023-03-05T01:00:00.088Z,22.77
2023-03-05T01:02:45.092Z,23.25
2023-03-05T01:05:30.111Z,23.67
2023-03-05T01:08:14.859Z,24.17
2023-03-05T01:10:59.651Z,23.50
2023-03-05T01:13:44.496Z,23.40
2023-03-05T01:16:29.492Z,23.45
2023-03-05T01:19:14.375Z,22.98
2023-03-05T01:21:59.290Z,22.78
2023-03-05T01:24:44.291Z,22.58
2023-03-05T01:27:29.260Z,21.28
2023-03-05T01:30:14.158Z,21.81
2023-03-05T01:32:59.190Z,22.13
2023-03-05T01:35:44.001Z,21.52
2023-03-05T01:38:29.062Z,22.15
2023-03-05T01:41:13.867Z,22.44
2023-03-05T01:43:58.904Z,22.10
2023-03-05T01:46:43.817Z,22.26
2023-03-05T01:49:28.693Z,22.73
2023-03-05T01:52:13.551Z,22.49
2023-03-05T01:54:58.381Z,21.73
2023-03-05T01:57:43.266Z,22.42
2023-03-05T02:00:28.122Z,22.55
2023-03-05T02:03:13.053Z,22.52
2023-03-05T02:05:58.008Z,22.45
2023-03-05T02:08:42.901Z,22.16
2023-03-05T02:11:27.649Z,22.77
2023-03-05T02:14:12.603Z,22.97
2023-03-05T02:16:57.518Z,22.75
2023-03-05T02:19:42.897Z,22.82
2023-03-05T02:22:27.843Z,22.52
2023-03-05T02:25:12.701Z,22.92
2023-03-05T02:27:57.622Z,23.46
2023-03-05T02:30:42.493Z,22.94
2023-03-05T02:33:27.470Z,23.67
2023-03-05T02:36:12.371Z,23.90
2023-03-05T02:38:57.258Z,24.04
2023-03-05T02:41:42.322Z,23.97
2023-03-05T02:44:27.081Z,24.22
2023-03-05T02:47:12.175Z,24.51
2023-03-05T02:49:57.129Z,25.11
2023-03-05T02:52:42.018Z,24.76
2023-03-05T02:55:26.762Z,25.40
2023-03-05T02:58:11.595Z,24.24
2023-03-05T03:00:56.517Z,24.99
2023-03-05T03:03:41.362Z,24.71
2023-03-05T03:06:26.412Z,25.27
2023-03-05T03:09:11.389Z,25.75
2023-03-05T03:11:56.264Z,24.93
2023-03-05T03:14:41.115Z,26.01
2023-03-05T03:17:25.984Z,26.57
2023-03-05T03:20:10.821Z,27.42
2023-03-05T03:22:55.759Z,28.11
2023-03-05T03:25:40.753Z,28.33
2023-03-05T03:28:25.645Z,29.18
2023-03-05T03:31:10.493Z,28.80
2023-03-05T03:33:55.250Z,29.53
2023-03-05T03:36:40.278Z,28.81
2023-03-05T03:39:25.209Z,29.62
2023-03-05T03:42:10.180Z,30.13
2023-03-05T03:44:55.062Z,29.89
2023-03-05T03:47:39.963Z,30.46
2023-03-05T03:50:25.060Z,30.85
2023-03-05T03:53:09.930Z,31.50
2023-03-05T03:55:54.848Z,30.82
2023-03-05T03:58:39.775Z,32.32
2023-03-05T04:01:24.737Z,32.28
2023-03-05T04:04:10.281Z,32.12
2023-03-05T04:06:55.686Z,31.81
2023-03-05T04:09:40.676Z,32.28
2023-03-05T04:12:25.593Z,32.68
2023-03-05T04:15:10.466Z,32.75
2023-03-05T04:17:55.286Z,33.09
2023-03-05T04:20:40.202Z,32.39
2023-03-05T04:23:24.906Z,33.57
2023-03-05T04:26:09.861Z,33.50
2023-03-05T04:28:54.551Z,34.27
2023-03-05T04:31:39.446Z,35.01
2023-03-05T04:34:24.398Z,34.48
2023-03-05T04:37:09.318Z,34.18
2023-03-05T04:39:54.172Z,34.47
2023-03-05T04:42:38.993Z,34.37
2023-03-05T04:45:24.030Z,35.47
2023-03-05T04:48:08.940Z,34.51
2023-03-05T04:50:53.890Z,34.13
2023-03-05T04:53:38.829Z,34.52
2023-03-05T04:56:23.757Z,34.83
2023-03-05T04:59:08.639Z,34.67
2023-03-05T05:01:53.442Z,34.29
2023-03-05T05:04:38.174Z,34.24
2023-03-05T05:07:23.148Z,34.29
2023-03-05T05:10:08.110Z,33.85
2023-03-05T05:12:52.874Z,34.96
2023-03-05T05:15:37.937Z,34.04
2023-03-05T05:18:22.730Z,35.18
2023-03-05T05:21:07.621Z,34.84
2023-03-05T05:23:52.482Z,34.84
2023-03-05T05:26:37.420Z,35.36
2023-03-05T05:29:22.223Z,35.96
2023-03-05T05:32:07.146Z,35.29
2023-03-05T05:34:52.160Z,34.99
2023-03-05T05:37:36.949Z,34.48
2023-03-05T05:40:21.881Z,33.53
2023-03-05T05:43:06.672Z,33.42
2023-03-05T05:45:51.847Z,33.04
2023-03-05T05:48:37.052Z,32.72
2023-03-05T05:51:22.028Z,32.43
2023-03-05T05:54:07.023Z,32.70
2023-03-05T05:56:51.971Z,33.31
2023-03-05T05:59:36.971Z,33.28
2023-03-05T06:02:21.823Z,34.00
2023-03-05T06:05:06.744Z,34.23
2023-03-05T06:07:51.492Z,34.20
2023-03-05T06:10:36.375Z,33.23
2023-03-05T06:13:21.201Z,34.62
2023-03-05T06:16:06.104Z,36.46
2023-03-05T06:18:50.934Z,35.09
2023-03-05T06:21:35.977Z,35.59
2023-03-05T06:24:20.849Z,36.09
2023-03-05T06:27:05.592Z,36.08
2023-03-05T06:29:50.517Z,35.76
2023-03-05T06:32:35.422Z,36.50
2023-03-05T06:35:20.134Z,36.32
2023-03-05T06:38:04.990Z,36.49
2023-03-05T06:40:49.868Z,37.02
2023-03-05T06:43:34.718Z,37.43
2023-03-05T06:46:19.586Z,37.86
2023-03-05T06:49:04.558Z,37.97
2023-03-05T06:51:49.380Z,38.77
2023-03-05T06:54:34.263Z,38.00
2023-03-05T06:57:19.067Z,38.24
2023-03-05T07:00:03.988Z,37.91
2023-03-05T07:02:48.834Z,38.56
2023-03-05T07:05:34.328Z,37.80
2023-03-05T07:08:19.176Z,36.74
2023-03-05T07:11:03.987Z,36.29
2023-03-05T07:13:48.917Z,37.32
2023-03-05T07:16:33.831Z,37.03
2023-03-05T07:19:19.337Z,37.33
2023-03-05T07:22:04.219Z,37.72
2023-03-05T07:24:49.210Z,37.31
2023-03-05T07:27:34.107Z,37.36
2023-03-05T07:30:19.032Z,37.20
2023-03-05T07:33:04.098Z,36.83
2023-03-05T07:35:49.008Z,37.05
2023-03-05T07:38:34.025Z,36.68
2023-03-05T07:41:18.869Z,35.93
2023-03-05T07:44:03.790Z,36.22
2023-03-05T07:46:48.625Z,36.14
2023-03-05T07:49:33.707Z,35.56
2023-03-05T07:52:18.540Z,35.82
2023-03-05T07:55:03.573Z,36.44
2023-03-05T07:57:48.528Z,36.88
2023-03-05T08:00:33.384Z,36.14
2023-03-05T08:03:18.247Z,36.89
2023-03-05T08:06:03.159Z,37.42
2023-03-05T08:08:48.026Z,36.79
2023-03-05T08:11:32.984Z,36.97
2023-03-05T08:14:17.996Z,36.12
2023-03-05T08:17:02.840Z,36.48
2023-03-05T08:19:47.667Z,36.50
2023-03-05T08:22:32.565Z,36.51
2023-03-05T08:25:17.504Z,36.56
2023-03-05T08:28:02.605Z,36.98
2023-03-05T08:30:47.874Z,36.31
2023-03-05T08:33:35.213Z,35.90
2023-03-05T08:36:20.236Z,35.87
2023-03-05T08:39:05.015Z,36.05
2023-03-05T08:41:50.009Z,35.22
2023-03-05T08:44:34.839Z,35.56
2023-03-05T08:47:19.920Z,35.23
2023-03-05T08:50:05.273Z,35.00
2023-03-05T08:52:50.217Z,34.87
2023-03-05T08:55:35.186Z,35.79
2023-03-05T08:58:20.733Z,35.81
2023-03-05T09:01:05.736Z,35.85
2023-03-05T09:03:50.711Z,35.32
2023-03-05T09:06:35.579Z,35.17
2023-03-05T09:09:20.501Z,35.38
2023-03-05T09:12:05.555Z,35.43
2023-03-05T09:14:50.425Z,35.74
2023-03-05T09:17:35.301Z,36.38
2023-03-05T09:20:20.112Z,35.89
2023-03-05T09:23:05.139Z,36.63
2023-03-05T09:25:50.002Z,37.32
2023-03-05T09:28:34.833Z,36.78
2023-03-05T09:31:19.799Z,36.36
2023-03-05T09:34:04.680Z,35.52
2023-03-05T09:36:49.604Z,37.33
2023-03-05T09:39:34.453Z,36.86
2023-03-05T09:42:19.406Z,37.33
2023-03-05T09:45:04.349Z,37.43
2023-03-05T09:47:49.305Z,36.94
2023-03-05T09:50:34.212Z,36.21
2023-03-05T09:53:19.172Z,36.93
2023-03-05T09:56:04.004Z,36.78
2023-03-05T09:58:48.893Z,36.33
2023-03-05T10:01:33.885Z,37.20
2023-03-05T10:04:18.865Z,37.45
2023-03-05T10:07:04.243Z,37.08
2023-03-05T10:09:49.163Z,37.67
2023-03-05T10:12:34.061Z,37.69
2023-03-05T10:15:19.171Z,37.26
2023-03-05T10:18:04.034Z,36.46
2023-03-05T10:20:49.020Z,37.09
2023-03-05T10:23:33.826Z,36.40
2023-03-05T10:26:18.778Z,36.87
2023-03-05T10:29:03.719Z,36.40
2023-03-05T10:31:48.725Z,36.37
2023-03-05T10:34:33.962Z,36.84
2023-03-05T10:37:18.743Z,35.96
2023-03-05T10:40:03.693Z,37.20
2023-03-05T10:42:48.504Z,36.75
2023-03-05T10:45:33.618Z,37.04
2023-03-05T10:48:18.389Z,36.00
2023-03-05T10:51:03.284Z,35.86
2023-03-05T10:53:47.985Z,36.86
2023-03-05T10:56:32.881Z,36.94
2023-03-05T10:59:17.779Z,36.51
2023-03-05T11:02:02.655Z,37.37
2023-03-05T11:04:48.212Z,36.84
2023-03-05T11:07:33.382Z,37.28
2023-03-05T11:10:18.368Z,37.62
2023-03-05T11:13:03.196Z,36.83
2023-03-05T11:15:48.132Z,36.61
2023-03-05T11:18:33.046Z,36.46
2023-03-05T11:21:17.858Z,36.96
2023-03-05T11:24:02.820Z,36.72
2023-03-05T11:26:47.793Z,37.32
2023-03-05T11:29:32.810Z,36.20
2023-03-05T11:32:17.745Z,37.01
2023-03-05T11:35:02.617Z,36.27
2023-03-05T11:37:47.413Z,36.15
2023-03-05T11:40:32.424Z,36.61
2023-03-05T11:43:17.247Z,36.87
2023-03-05T11:46:02.242Z,37.37
2023-03-05T11:48:47.512Z,36.18
2023-03-05T11:51:32.394Z,35.97
2023-03-05T11:54:17.461Z,36.17
2023-03-05T11:57:02.691Z,36.16
2023-03-05T11:59:47.926Z,36.02
2023-03-05T12:02:32.789Z,36.35
2023-03-05T12:05:17.742Z,35.59
2023-03-05T12:08:02.552Z,35.71
2023-03-05T12:10:47.517Z,36.19
2023-03-05T12:13:32.534Z,36.39
2023-03-05T12:16:17.577Z,35.56
2023-03-05T12:19:02.884Z,36.35
2023-03-05T12:21:47.717Z,35.87
2023-03-05T12:24:32.648Z,36.54
2023-03-05T12:27:17.548Z,36.19
2023-03-05T12:30:02.394Z,35.49
2023-03-05T12:32:47.280Z,36.15
2023-03-05T12:35:32.305Z,36.24
2023-03-05T12:38:26.722Z,37.04
2023-03-05T12:41:12.081Z,36.28
2023-03-05T12:43:56.912Z,36.17
2023-03-05T12:46:41.796Z,36.24
2023-03-05T12:49:26.626Z,36.48
2023-03-05T12:52:11.548Z,36.52
2023-03-05T12:54:56.445Z,36.08
2023-03-05T12:57:41.139Z,36.10
2023-03-05T13:00:26.042Z,35.71
2023-03-05T13:03:10.916Z,36.38
2023-03-05T13:05:55.815Z,35.88
2023-03-05T13:08:40.665Z,35.78
2023-03-05T13:11:25.691Z,35.56
2023-03-05T13:14:10.571Z,36.01
2023-03-05T13:16:55.391Z,36.80
2023-03-05T13:19:40.341Z,37.52
2023-03-05T13:22:25.230Z,37.60
2023-03-05T13:25:10.276Z,36.59
2023-03-05T13:27:55.060Z,36.53
2023-03-05T13:30:40.074Z,36.72
2023-03-05T13:33:24.885Z,36.84
2023-03-05T13:36:09.724Z,37.54
2023-03-05T13:38:54.591Z,37.99
2023-03-05T13:41:39.397Z,37.07
2023-03-05T13:44:24.331Z,37.18
2023-03-05T13:47:09.128Z,37.56
2023-03-05T13:49:54.123Z,36.52
2023-03-05T13:52:38.942Z,37.67
2023-03-05T13:55:23.765Z,38.07
2023-03-05T13:58:08.565Z,36.89
2023-03-05T14:00:53.612Z,36.44
2023-03-05T14:03:38.574Z,37.49
2023-03-05T14:06:23.425Z,36.44
2023-03-05T14:09:08.333Z,36.73
2023-03-05T14:11:53.158Z,35.72
2023-03-05T14:14:39.139Z,35.98
2023-03-05T14:17:24.281Z,36.32
2023-03-05T14:20:09.129Z,36.12
2023-03-05T14:22:53.950Z,36.76
2023-03-05T14:25:38.825Z,35.64
2023-03-05T14:28:23.825Z,35.58
2023-03-05T14:31:08.687Z,36.18
2023-03-05T14:33:53.597Z,35.54
2023-03-05T14:36:38.378Z,35.39
2023-03-05T14:39:23.258Z,35.52
2023-03-05T14:42:08.095Z,35.87
2023-03-05T14:44:53.041Z,34.94
2023-03-05T14:47:38.027Z,33.89
2023-03-05T14:50:22.971Z,34.68
2023-03-05T14:53:07.908Z,33.79
2023-03-05T14:55:52.679Z,33.54
2023-03-05T14:58:37.659Z,35.96
2023-03-05T15:01:22.458Z,34.88
2023-03-05T15:04:07.365Z,35.40
2023-03-05T15:06:52.108Z,34.86
2023-03-05T15:09:37.085Z,35.43
2023-03-05T15:12:22.013Z,34.35
2023-03-05T15:15:07.206Z,34.63
2023-03-05T15:17:52.220Z,34.44
2023-03-05T15:20:37.125Z,32.15
2023-03-05T15:23:22.200Z,32.17
2023-03-05T15:26:07.204Z,33.99
2023-03-05T15:28:52.157Z,33.48
2023-03-05T15:31:37.057Z,34.55
2023-03-05T15:34:21.952Z,34.99
2023-03-05T15:37:06.931Z,35.31
2023-03-05T15:39:51.745Z,36.92
2023-03-05T15:42:36.584Z,37.84
2023-03-05T15:45:21.503Z,36.33
2023-03-05T15:48:06.349Z,39.71
2023-03-05T15:50:51.229Z,38.06
2023-03-05T15:53:36.143Z,36.75
2023-03-05T15:56:21.062Z,37.32
2023-03-05T15:59:05.976Z,36.79
2023-03-05T16:01:50.854Z,37.15
2023-03-05T16:04:35.821Z,37.31
2023-03-05T16:07:23.575Z,37.01
2023-03-05T16:10:08.938Z,38.12
2023-03-05T16:12:53.782Z,37.37
2023-03-05T16:15:38.645Z,37.54
2023-03-05T16:18:23.580Z,38.19
2023-03-05T16:21:08.349Z,38.94
2023-03-05T16:23:53.294Z,38.36
2023-03-05T16:26:38.292Z,38.47
2023-03-05T16:29:23.077Z,39.32
2023-03-05T16:32:08.085Z,38.75
2023-03-05T16:34:53.231Z,39.46
2023-03-05T16:37:38.091Z,39.13
2023-03-05T16:40:22.948Z,38.18
2023-03-05T16:43:07.871Z,39.20
2023-03-05T16:45:52.751Z,39.10
2023-03-05T16:48:37.645Z,39.97
2023-03-05T16:51:22.711Z,38.81
2023-03-05T16:54:09.995Z,38.66
2023-03-05T16:56:55.160Z,39.00
2023-03-05T16:59:40.107Z,39.35
2023-03-05T17:02:25.071Z,38.08
2023-03-05T17:05:10.090Z,38.02
2023-03-05T17:07:55.661Z,38.44
2023-03-05T17:10:40.814Z,38.88
2023-03-05T17:13:25.704Z,38.62
2023-03-05T17:16:10.847Z,38.31
2023-03-05T17:18:55.632Z,38.41
2023-03-05T17:21:42.371Z,38.51
2023-03-05T17:24:27.720Z,37.77
2023-03-05T17:27:12.910Z,38.40
2023-03-05T17:29:57.878Z,38.88
2023-03-05T17:32:42.807Z,39.76
2023-03-05T17:35:27.603Z,39.78
2023-03-05T17:38:12.462Z,38.52
2023-03-05T17:40:57.378Z,38.10
2023-03-05T17:43:42.426Z,39.65
2023-03-05T17:46:27.212Z,40.02
2023-03-05T17:49:12.193Z,40.05
2023-03-05T17:51:57.199Z,40.46
2023-03-05T17:54:42.193Z,40.97
2023-03-05T17:57:27.066Z,42.59
2023-03-05T18:00:11.945Z,42.26
2023-03-05T18:02:56.684Z,40.97
2023-03-05T18:05:41.636Z,41.54
2023-03-05T18:08:26.450Z,40.72
2023-03-05T18:11:11.407Z,40.11
2023-03-05T18:13:56.254Z,39.71
2023-03-05T18:16:41.247Z,40.95
2023-03-05T18:19:26.170Z,40.17
2023-03-05T18:22:10.968Z,41.16
2023-03-05T18:24:55.929Z,42.03
2023-03-05T18:27:40.762Z,43.10
2023-03-05T18:30:25.679Z,44.48
2023-03-05T18:33:10.595Z,43.04
2023-03-05T18:35:55.624Z,45.40
2023-03-05T18:38:40.778Z,44.54
2023-03-05T18:41:27.865Z,44.39
2023-03-05T18:44:13.149Z,45.77
2023-03-05T18:46:58.017Z,46.74
2023-03-05T18:49:42.855Z,46.53
2023-03-05T18:52:27.933Z,45.22
2023-03-05T18:55:12.791Z,44.13
2023-03-05T18:57:57.654Z,44.03
2023-03-05T19:00:42.584Z,43.47
2023-03-05T19:03:27.557Z,42.83
2023-03-05T19:06:12.415Z,43.28
2023-03-05T19:08:57.289Z,43.08
2023-03-05T19:11:42.303Z,43.04
2023-03-05T19:14:27.279Z,41.68
2023-03-05T19:17:12.143Z,42.34
2023-03-05T19:19:56.960Z,42.54
2023-03-05T19:22:41.923Z,41.25
2023-03-05T19:25:26.817Z,42.37
2023-03-05T19:28:11.757Z,42.31
2023-03-05T19:30:56.641Z,42.71
2023-03-05T19:33:41.421Z,42.63
2023-03-05T19:36:26.275Z,43.77
2023-03-05T19:39:11.168Z,43.36
2023-03-05T19:41:55.993Z,42.02
2023-03-05T19:44:40.667Z,42.24
2023-03-05T19:47:25.642Z,42.15
2023-03-05T19:50:10.458Z,41.59
2023-03-05T19:52:55.351Z,41.34
2023-03-05T19:55:40.249Z,41.45
2023-03-05T19:58:25.106Z,42.50
2023-03-05T20:01:10.009Z,42.15
2023-03-05T20:03:54.980Z,41.68
2023-03-05T20:06:40.022Z,41.70
2023-03-05T20:09:24.860Z,41.51
2023-03-05T20:12:09.723Z,41.02
2023-03-05T20:14:54.685Z,41.66
2023-03-05T20:17:39.603Z,42.19
2023-03-05T20:20:24.352Z,40.88
2023-03-05T20:23:09.355Z,40.44
2023-03-05T20:25:54.229Z,40.71
2023-03-05T20:28:39.078Z,40.79
2023-03-05T20:31:24.130Z,40.97
2023-03-05T20:34:09.328Z,41.29
2023-03-05T20:36:54.288Z,41.47
2023-03-05T20:39:39.334Z,41.01
2023-03-05T20:42:24.321Z,40.79
2023-03-05T20:45:09.144Z,40.59
2023-03-05T20:47:54.201Z,41.99
2023-03-05T20:50:39.045Z,40.54
2023-03-05T20:53:23.993Z,41.34
2023-03-05T20:56:08.803Z,40.80
2023-03-05T20:58:53.470Z,40.69
2023-03-05T21:01:38.558Z,40.39
2023-03-05T21:04:23.378Z,39.88
2023-03-05T21:07:08.436Z,39.68
2023-03-05T21:09:53.177Z,41.23
2023-03-05T21:12:38.232Z,41.06
2023-03-05T21:15:23.231Z,40.13
2023-03-05T21:18:08.138Z,39.46
2023-03-05T21:20:52.998Z,40.25
2023-03-05T21:23:37.744Z,40.63
2023-03-05T21:26:22.633Z,40.59
2023-03-05T21:29:07.432Z,40.42
2023-03-05T21:31:52.369Z,40.76
2023-03-05T21:34:37.199Z,40.60
2023-03-05T21:37:22.200Z,40.82
2023-03-05T21:40:06.973Z,40.53
2023-03-05T21:42:51.870Z,40.40
2023-03-05T21:45:36.790Z,40.29
2023-03-05T21:48:21.753Z,39.50
2023-03-05T21:51:06.868Z,39.34
2023-03-05T21:53:51.826Z,41.00
2023-03-05T21:56:36.647Z,39.67
2023-03-05T21:59:21.514Z,40.71
2023-03-05T22:02:06.293Z,39.89
2023-03-05T22:04:51.164Z,40.06
2023-03-05T22:07:36.068Z,40.66
2023-03-05T22:10:21.017Z,39.68
2023-03-05T22:13:05.795Z,39.87
2023-03-05T22:15:50.776Z,38.94
2023-03-05T22:18:35.626Z,38.88
2023-03-05T22:21:20.755Z,39.02
2023-03-05T22:24:05.503Z,38.46
2023-03-05T22:26:50.480Z,39.41
2023-03-05T22:29:35.196Z,38.77
2023-03-05T22:32:20.326Z,39.55
2023-03-05T22:35:05.267Z,38.98
2023-03-05T22:37:50.116Z,40.54
2023-03-05T22:40:35.076Z,40.42
2023-03-05T22:43:20.008Z,40.48
2023-03-05T22:46:04.967Z,40.23
2023-03-05T22:48:49.748Z,39.30
2023-03-05T22:51:34.782Z,40.26
2023-03-05T22:54:19.647Z,39.76
2023-03-05T22:57:04.436Z,41.09
2023-03-05T22:59:49.355Z,40.45
2023-03-05T23:02:34.203Z,41.00
2023-03-05T23:05:19.162Z,39.14
2023-03-05T23:08:04.104Z,39.55
2023-03-05T23:10:49.090Z,39.73
2023-03-05T23:13:34.023Z,40.10
2023-03-05T23:16:18.882Z,40.43
2023-03-05T23:19:03.540Z,39.53
2023-03-05T23:21:48.479Z,38.99
2023-03-05T23:24:33.384Z,38.36
2023-03-05T23:27:18.130Z,38.31
2023-03-05T23:30:03.105Z,37.67
2023-03-05T23:32:47.943Z,37.42
2023-03-05T23:35:32.966Z,37.76
2023-03-05T23:38:17.768Z,38.42
2023-03-05T23:41:02.652Z,39.15
2023-03-05T23:43:47.559Z,38.88
2023-03-05T23:46:32.607Z,39.11
2023-03-05T23:49:17.681Z,39.64
2023-03-05T23:52:02.484Z,39.69
2023-03-05T23:54:47.347Z,40.48
2023-03-05T23:57:32.127Z,39.98
